Time;durP1;ratioP1;P1;durP2;ratioP2;P2;SDS_P1;SDS_P2;PMS_P1;PMS_P2;Temp;Humidity;BMP_temperature;BMP_pressure;BME280_temperature;BME280_humidity;BME280_pressure;Samples;Min_cycle;Max_cycle;Signal;HPM_P1;HPM_P2
2022/10/21 00:00:16;;;;;;;156.00;47.13;;;12.70;99.90;;;;;;5086544;28;20082;-83
2022/10/21 00:02:42;;;;;;;116.13;42.97;;;12.60;99.90;;;;;;5117392;27;20111;-82
2022/10/21 00:05:08;;;;;;;129.27;44.35;;;12.60;99.90;;;;;;5078406;28;20070;-83
2022/10/21 00:07:34;;;;;;;129.40;42.92;;;12.50;99.90;;;;;;5080283;28;20475;-83
2022/10/21 00:10:00;;;;;;;148.60;45.80;;;12.50;99.90;;;;;;5074435;28;20089;-82
2022/10/21 00:12:29;;;;;;;129.98;43.88;;;12.50;99.90;;;;;;5070998;28;20020;-82
2022/10/21 00:15:09;;;;;;;121.03;39.35;;;12.40;99.90;;;;;;5057255;28;20688;-82
2022/10/21 00:17:39;;;;;;;132.55;44.47;;;12.20;99.90;;;;;;5117574;27;20468;-83
2022/10/21 00:20:08;;;;;;;103.10;39.47;;;12.00;99.90;;;;;;5075073;28;20033;-82
2022/10/21 00:22:34;;;;;;;109.50;37.58;;;11.80;99.90;;;;;;5101514;28;20023;-82
2022/10/21 00:25:00;;;;;;;111.53;37.45;;;11.70;99.90;;;;;;5077541;28;20800;-82
2022/10/21 00:27:26;;;;;;;108.35;37.97;;;11.60;99.90;;;;;;5075254;28;20167;-82
2022/10/21 00:29:52;;;;;;;110.95;37.55;;;11.50;99.90;;;;;;5086712;28;20166;-82
2022/10/21 00:32:18;;;;;;;97.93;38.63;;;11.30;99.90;;;;;;5055178;28;20104;-82
2022/10/21 00:34:44;;;;;;;101.07;38.55;;;11.40;99.90;;;;;;5102372;28;20027;-83
2022/10/21 00:37:10;;;;;;;121.82;41.13;;;11.50;99.90;;;;;;5074090;28;20017;-83
2022/10/21 00:39:37;;;;;;;118.55;43.58;;;11.60;99.90;;;;;;5069517;28;20396;-83
2022/10/21 00:42:12;;;;;;;132.68;45.55;;;11.60;99.90;;;;;;5082457;28;20021;-82
2022/10/21 00:44:40;;;;;;;122.90;45.95;;;11.70;99.90;;;;;;5087940;28;20044;-83
2022/10/21 00:47:20;;;;;;;126.72;46.08;;;11.80;99.90;;;;;;5084063;28;20036;-82
2022/10/21 00:49:56;;;;;;;122.35;44.40;;;11.80;99.90;;;;;;5081468;28;20466;-82
2022/10/21 00:52:22;;;;;;;113.03;43.00;;;11.80;99.90;;;;;;5066187;28;20111;-82
2022/10/21 00:54:51;;;;;;;121.07;43.67;;;11.70;99.90;;;;;;5075829;28;20021;-83
2022/10/21 00:57:18;;;;;;;119.47;43.28;;;11.70;99.90;;;;;;5076115;28;20024;-82
2022/10/21 00:59:52;;;;;;;121.18;43.42;;;11.80;99.90;;;;;;5074463;28;20036;-82
2022/10/21 01:02:18;;;;;;;117.60;44.50;;;11.80;99.90;;;;;;5081664;28;20441;-82
2022/10/21 01:04:44;;;;;;;122.32;43.30;;;11.90;99.90;;;;;;5079625;28;20119;-83
2022/10/21 01:07:11;;;;;;;117.65;44.05;;;12.00;99.90;;;;;;5077983;28;20028;-82
2022/10/21 01:09:37;;;;;;;124.07;45.45;;;12.00;99.90;;;;;;5054326;28;20032;-82
2022/10/21 01:12:04;;;;;;;117.50;43.22;;;12.10;99.90;;;;;;5078031;28;20077;-82
2022/10/21 01:14:54;;;;;;;124.65;46.25;;;12.10;99.90;;;;;;5074903;28;20016;-83
2022/10/21 01:17:41;;;;;;;110.15;43.97;;;12.10;99.90;;;;;;5074225;28;20077;-83
2022/10/21 01:20:19;;;;;;;111.30;41.30;;;12.00;99.90;;;;;;5076806;28;20070;-83
2022/10/21 01:23:16;;;;;;;112.60;42.42;;;11.90;99.90;;;;;;5078230;28;20144;-82
2022/10/21 01:26:13;;;;;;;116.03;43.63;;;11.80;99.90;;;;;;5065347;28;20048;-82
2022/10/21 01:28:58;;;;;;;118.80;43.88;;;11.70;99.90;;;;;;5074341;28;20033;-82
2022/10/21 01:31:36;;;;;;;125.93;46.03;;;11.70;99.90;;;;;;5075885;28;20063;-82
2022/10/21 01:34:11;;;;;;;120.82;46.75;;;11.60;99.90;;;;;;5062350;28;20073;-82
2022/10/21 01:36:53;;;;;;;125.93;49.60;;;11.60;99.90;;;;;;5076383;28;20035;-82
2022/10/21 01:39:47;;;;;;;121.05;48.70;;;11.50;99.90;;;;;;5063337;28;20035;-82
2022/10/21 01:42:22;;;;;;;127.13;45.67;;;11.50;99.90;;;;;;5068481;28;20035;-82
2022/10/21 01:45:07;;;;;;;123.43;44.95;;;11.40;99.90;;;;;;5099164;28;20364;-82
2022/10/21 01:47:38;;;;;;;124.38;46.92;;;11.30;99.90;;;;;;5069182;28;20021;-82
2022/10/21 01:50:04;;;;;;;;;;;11.30;99.90;;;;;;5084465;28;20058;-82
2022/10/21 01:52:30;;;;;;;124.25;45.80;;;11.30;99.90;;;;;;5069600;28;19908;-82
2022/10/21 01:55:08;;;;;;;126.78;47.38;;;11.30;99.90;;;;;;5086938;28;20444;-82
2022/10/21 01:57:39;;;;;;;133.43;46.80;;;11.30;99.90;;;;;;5071246;28;20021;-82
2022/10/21 02:00:06;;;;;;;;;;;11.30;99.90;;;;;;5074981;28;20479;-83
2022/10/21 02:02:37;;;;;;;122.68;47.05;;;11.30;99.90;;;;;;5067092;28;19965;-82
2022/10/21 02:05:16;;;;;;;128.05;47.53;;;11.20;99.90;;;;;;5079632;28;20035;-82
2022/10/21 02:07:41;;;;;;;134.57;48.30;;;11.20;99.90;;;;;;5075139;28;20036;-82
2022/10/21 02:10:08;;;;;;;130.65;48.30;;;11.20;99.90;;;;;;5089832;28;20371;-82
2022/10/21 02:12:35;;;;;;;140.95;48.88;;;11.10;99.90;;;;;;5062836;28;20552;-82
2022/10/21 02:15:05;;;;;;;130.15;48.00;;;11.10;99.90;;;;;;5078678;28;20023;-82
2022/10/21 02:17:34;;;;;;;126.97;48.75;;;11.10;99.90;;;;;;5082131;28;20020;-82
2022/10/21 02:20:03;;;;;;;139.45;48.03;;;11.00;99.90;;;;;;5077720;28;20027;-82
2022/10/21 02:22:31;;;;;;;134.93;49.65;;;11.00;99.90;;;;;;5083472;28;20040;-82
2022/10/21 02:25:24;;;;;;;143.98;49.25;;;11.00;99.90;;;;;;5054462;28;20412;-82
2022/10/21 02:27:51;;;;;;;137.75;48.97;;;11.00;99.90;;;;;;5087167;28;20047;-82
2022/10/21 02:30:34;;;;;;;131.77;48.53;;;11.00;99.90;;;;;;5056053;28;20048;-82
2022/10/21 02:33:10;;;;;;;129.07;50.22;;;11.10;99.90;;;;;;5081245;28;20029;-82
2022/10/21 02:36:04;;;;;;;138.38;51.17;;;11.10;99.90;;;;;;5074049;28;20025;-83
2022/10/21 02:39:06;;;;;;;136.65;50.65;;;11.10;99.90;;;;;;5065981;28;20070;-82
2022/10/21 02:41:36;;;;;;;162.30;53.95;;;11.10;99.90;;;;;;5076102;28;20095;-82
2022/10/21 02:44:03;;;;;;;147.70;50.50;;;11.10;99.90;;;;;;5067697;28;20035;-83
2022/10/21 02:46:41;;;;;;;147.75;53.25;;;11.00;99.90;;;;;;5081077;28;20020;-82
2022/10/21 02:49:07;;;;;;;161.43;51.90;;;11.10;99.90;;;;;;5078529;28;20023;-82
2022/10/21 02:51:33;;;;;;;161.23;54.65;;;11.10;99.90;;;;;;5081568;28;20024;-82
2022/10/21 02:54:00;;;;;;;152.15;51.03;;;11.10;99.90;;;;;;5080542;28;20016;-82
2022/10/21 02:56:26;;;;;;;153.73;52.40;;;11.20;99.90;;;;;;5083131;28;20035;-82
2022/10/21 02:58:52;;;;;;;149.88;52.55;;;11.30;99.90;;;;;;5075578;28;20474;-82
2022/10/21 03:01:18;;;;;;;142.25;50.90;;;11.30;99.90;;;;;;5109255;27;20029;-83
2022/10/21 03:03:43;;;;;;;135.75;50.90;;;11.40;99.90;;;;;;5089919;28;20030;-83
2022/10/21 03:06:09;;;;;;;150.23;51.60;;;11.30;99.90;;;;;;5076924;28;20099;-82
2022/10/21 03:08:35;;;;;;;150.68;53.17;;;11.30;99.90;;;;;;5072530;28;20029;-82
2022/10/21 03:11:00;;;;;;;136.45;49.50;;;11.30;99.90;;;;;;5085546;28;20024;-82
2022/10/21 03:13:26;;;;;;;143.43;50.80;;;11.20;99.90;;;;;;5104805;27;20029;-82
2022/10/21 03:15:52;;;;;;;127.95;48.72;;;11.30;99.90;;;;;;5086834;28;20036;-83
2022/10/21 03:18:17;;;;;;;134.45;51.22;;;11.20;99.90;;;;;;5061418;28;20554;-82
2022/10/21 03:20:43;;;;;;;141.73;51.45;;;11.20;99.90;;;;;;5070198;28;20574;-82
2022/10/21 03:23:09;;;;;;;165.00;55.50;;;11.20;99.90;;;;;;5076235;28;20025;-82
2022/10/21 03:25:35;;;;;;;151.32;55.25;;;11.20;99.90;;;;;;5071295;28;20040;-82
2022/10/21 03:28:00;;;;;;;156.27;53.38;;;11.20;99.90;;;;;;5086418;28;20443;-82
2022/10/21 03:30:26;;;;;;;139.38;52.13;;;11.20;99.90;;;;;;5072209;28;20043;-82
2022/10/21 03:32:52;;;;;;;152.73;51.97;;;11.20;99.90;;;;;;5086871;28;20048;-82
2022/10/21 03:35:17;;;;;;;146.32;53.42;;;11.30;99.90;;;;;;5073427;28;20017;-82
2022/10/21 03:37:43;;;;;;;164.05;52.97;;;11.30;99.90;;;;;;5086628;28;20024;-82
2022/10/21 03:40:09;;;;;;;159.80;54.28;;;11.30;99.90;;;;;;5075805;28;20111;-82
2022/10/21 03:42:35;;;;;;;150.60;53.85;;;11.30;99.90;;;;;;5071961;28;20083;-82
2022/10/21 03:45:00;;;;;;;158.48;53.13;;;11.30;99.90;;;;;;5084814;28;20032;-82
2022/10/21 03:47:26;;;;;;;170.65;53.55;;;11.30;99.90;;;;;;5087133;28;20039;-83
2022/10/21 03:49:52;;;;;;;166.18;53.97;;;11.20;99.90;;;;;;5086005;28;20131;-82
2022/10/21 03:52:17;;;;;;;160.52;56.25;;;11.30;99.90;;;;;;5055953;28;20051;-82
2022/10/21 03:54:47;;;;;;;161.02;57.72;;;11.30;99.90;;;;;;5103685;28;20552;-82
2022/10/21 03:57:13;;;;;;;163.90;56.17;;;11.30;99.90;;;;;;5075520;28;20028;-83
2022/10/21 03:59:39;;;;;;;161.85;55.97;;;11.30;99.90;;;;;;5105674;27;20033;-82
2022/10/21 04:02:05;;;;;;;137.27;51.67;;;11.30;99.90;;;;;;5065797;28;20020;-82
2022/10/21 04:04:30;;;;;;;146.77;52.47;;;11.30;99.90;;;;;;5064559;28;20025;-82
2022/10/21 04:06:56;;;;;;;143.05;51.85;;;11.30;99.90;;;;;;5099118;27;20038;-82
2022/10/21 04:09:22;;;;;;;157.80;53.35;;;11.30;99.90;;;;;;5074879;28;20043;-82
2022/10/21 04:11:48;;;;;;;149.75;53.53;;;11.30;99.90;;;;;;5078261;28;20025;-82
2022/10/21 04:14:13;;;;;;;137.48;50.97;;;11.40;99.90;;;;;;5060158;28;20047;-83
2022/10/21 04:16:39;;;;;;;142.88;51.22;;;11.30;99.90;;;;;;5079537;28;20491;-82
2022/10/21 04:19:05;;;;;;;136.90;49.58;;;11.30;99.90;;;;;;5077486;28;20028;-82
2022/10/21 04:21:30;;;;;;;142.68;49.88;;;11.30;99.90;;;;;;5080659;28;20027;-83
2022/10/21 04:23:56;;;;;;;125.20;45.70;;;11.40;99.90;;;;;;5094211;28;20055;-83
2022/10/21 04:26:22;;;;;;;122.38;43.63;;;11.40;99.90;;;;;;5073871;28;20032;-83
2022/10/21 04:28:47;;;;;;;93.85;36.35;;;11.50;99.90;;;;;;5110063;27;20040;-82
2022/10/21 04:31:13;;;;;;;106.78;37.45;;;11.60;99.90;;;;;;5059332;28;20630;-82
2022/10/21 04:33:39;;;;;;;102.70;36.72;;;11.60;99.90;;;;;;5060620;28;20032;-82
2022/10/21 04:36:05;;;;;;;99.63;36.38;;;11.60;99.90;;;;;;5071643;28;20028;-82
2022/10/21 04:38:30;;;;;;;95.13;38.00;;;11.70;99.90;;;;;;5080190;28;20522;-83
2022/10/21 04:40:57;;;;;;;96.72;37.60;;;11.70;99.90;;;;;;5094727;28;20135;-83
2022/10/21 04:43:24;;;;;;;102.55;39.58;;;11.70;99.90;;;;;;5073934;28;20074;-82
2022/10/21 04:45:49;;;;;;;107.63;39.90;;;11.70;99.90;;;;;;5093682;28;20033;-82
2022/10/21 04:48:46;;;;;;;99.10;36.35;;;11.70;99.90;;;;;;5077219;28;20457;-83
2022/10/21 04:54:59;;;;;;;98.05;36.55;;;11.70;99.90;;;;;;5072808;28;20058;-83
2022/10/21 04:57:25;;;;;;;104.75;36.45;;;11.70;99.90;;;;;;5059182;28;20651;-83
2022/10/21 04:59:51;;;;;;;108.50;40.70;;;11.70;99.90;;;;;;5074180;28;20030;-82
2022/10/21 05:02:16;;;;;;;102.03;40.67;;;11.80;99.90;;;;;;5064705;28;20114;-82
2022/10/21 05:04:42;;;;;;;105.80;41.40;;;11.90;99.90;;;;;;5079588;28;20021;-82
2022/10/21 05:07:08;;;;;;;107.55;41.28;;;12.00;99.90;;;;;;5078859;28;20073;-82
2022/10/21 05:09:34;;;;;;;113.47;43.53;;;12.00;99.90;;;;;;5054183;28;20117;-82
2022/10/21 05:12:00;;;;;;;115.90;45.53;;;11.90;99.90;;;;;;5063068;28;20024;-82
2022/10/21 05:14:25;;;;;;;120.80;46.30;;;11.90;99.90;;;;;;5053197;28;20035;-82
2022/10/21 05:16:51;;;;;;;122.22;43.72;;;12.00;99.90;;;;;;5060820;28;20032;-82
2022/10/21 05:19:17;;;;;;;114.80;44.67;;;11.90;99.90;;;;;;5069573;28;20111;-83
2022/10/21 05:21:43;;;;;;;124.50;46.92;;;12.00;99.90;;;;;;5068882;28;20021;-82
2022/10/21 05:24:08;;;;;;;118.78;45.63;;;12.00;99.90;;;;;;5078832;28;20552;-82
2022/10/21 05:26:34;;;;;;;118.22;46.20;;;12.00;99.90;;;;;;5078555;28;20115;-82
2022/10/21 05:29:00;;;;;;;119.28;47.22;;;12.10;99.90;;;;;;5058264;28;20161;-82
2022/10/21 05:31:26;;;;;;;116.70;46.58;;;12.10;99.90;;;;;;5076179;28;20020;-83
2022/10/21 05:33:51;;;;;;;119.13;47.00;;;12.10;99.90;;;;;;5059799;28;20052;-83
2022/10/21 05:36:17;;;;;;;130.63;47.03;;;12.20;99.90;;;;;;5056515;28;20044;-82
2022/10/21 05:38:43;;;;;;;128.68;46.38;;;12.20;99.90;;;;;;5078075;28;20451;-82
2022/10/21 05:41:09;;;;;;;104.80;43.95;;;12.20;99.90;;;;;;5069599;28;20025;-82
2022/10/21 05:43:36;;;;;;;137.95;48.13;;;12.20;99.90;;;;;;5071855;28;20512;-82
2022/10/21 05:46:02;;;;;;;116.32;44.58;;;12.20;99.90;;;;;;5080661;28;20056;-82
2022/10/21 05:48:28;;;;;;;107.53;43.72;;;12.20;99.90;;;;;;5090517;28;20028;-82
2022/10/21 05:50:54;;;;;;;109.80;46.13;;;12.20;99.90;;;;;;5062200;28;20020;-83
2022/10/21 05:53:24;;;;;;;114.03;46.03;;;12.20;99.90;;;;;;5059027;28;20385;-83
2022/10/21 05:56:09;;;;;;;96.82;40.90;;;12.20;99.90;;;;;;5064530;28;20123;-83
2022/10/21 05:58:35;;;;;;;112.00;44.92;;;12.30;99.90;;;;;;5056576;28;20033;-85
2022/10/21 06:01:00;;;;;;;111.95;44.58;;;12.30;99.90;;;;;;5071609;28;20032;-85
2022/10/21 06:03:29;;;;;;;113.90;44.78;;;12.20;99.90;;;;;;5074288;28;20776;-84
2022/10/21 06:05:59;;;;;;;114.40;44.00;;;12.30;99.90;;;;;;5085807;28;20032;-84
2022/10/21 06:08:26;;;;;;;107.80;44.25;;;12.30;99.90;;;;;;5077906;28;20178;-85
2022/10/21 06:11:02;;;;;;;101.97;40.30;;;12.30;99.90;;;;;;5061222;28;20092;-85
2022/10/21 06:13:28;;;;;;;96.82;38.53;;;12.40;99.90;;;;;;5076480;28;20476;-85
2022/10/21 06:15:53;;;;;;;94.00;37.65;;;12.40;99.90;;;;;;5059823;28;20081;-85
2022/10/21 06:18:19;;;;;;;92.85;36.10;;;12.50;99.90;;;;;;5081412;28;20073;-85
2022/10/21 06:20:45;;;;;;;89.95;35.08;;;12.50;99.90;;;;;;5061029;28;20537;-84
2022/10/21 06:23:11;;;;;;;99.78;38.47;;;12.60;99.90;;;;;;5085566;28;20107;-85
2022/10/21 06:25:37;;;;;;;95.90;37.28;;;12.60;99.90;;;;;;5077214;28;20470;-85
2022/10/21 06:28:03;;;;;;;91.32;35.00;;;12.50;99.90;;;;;;5079859;28;20024;-84
2022/10/21 06:30:28;;;;;;;90.40;36.30;;;12.60;99.90;;;;;;5065293;28;20025;-84
2022/10/21 06:32:54;;;;;;;104.00;37.95;;;12.60;99.90;;;;;;5072881;28;20024;-85
2022/10/21 06:35:20;;;;;;;115.85;44.75;;;12.60;99.90;;;;;;5062543;28;20370;-85
2022/10/21 06:37:46;;;;;;;113.07;43.33;;;12.60;99.90;;;;;;5080769;28;20037;-84
2022/10/21 06:40:11;;;;;;;116.93;50.03;;;12.50;99.90;;;;;;5083232;28;20460;-84
2022/10/21 06:42:37;;;;;;;105.00;44.65;;;12.50;99.90;;;;;;5072047;28;20376;-84
2022/10/21 06:45:03;;;;;;;109.88;41.85;;;12.50;99.90;;;;;;5082864;28;20463;-85
2022/10/21 06:47:29;;;;;;;101.30;41.10;;;12.50;99.90;;;;;;5071022;28;20021;-84
2022/10/21 06:49:54;;;;;;;102.97;43.42;;;12.50;99.90;;;;;;5081816;28;20429;-84
2022/10/21 06:52:20;;;;;;;96.43;39.65;;;12.60;99.90;;;;;;5060215;28;20067;-84
2022/10/21 06:54:46;;;;;;;100.30;39.97;;;12.60;99.90;;;;;;5080600;28;20037;-84
2022/10/21 06:57:12;;;;;;;96.97;41.15;;;12.60;99.90;;;;;;5076896;28;20852;-84
2022/10/21 06:59:37;;;;;;;95.57;41.75;;;12.50;99.90;;;;;;5058962;28;20045;-84
2022/10/21 07:02:03;;;;;;;90.22;38.28;;;12.60;99.90;;;;;;5078775;28;20024;-84
2022/10/21 07:04:29;;;;;;;108.32;39.17;;;12.60;99.90;;;;;;5080128;28;20583;-84
2022/10/21 07:06:54;;;;;;;85.88;37.65;;;12.60;99.90;;;;;;5081600;28;20027;-84
2022/10/21 07:09:20;;;;;;;94.00;37.67;;;12.60;99.90;;;;;;5080849;28;20124;-84
2022/10/21 07:11:46;;;;;;;93.50;36.05;;;12.60;99.90;;;;;;5079210;28;20035;-84
2022/10/21 07:14:12;;;;;;;96.20;36.78;;;12.70;99.90;;;;;;5081831;28;20020;-84
2022/10/21 07:16:37;;;;;;;85.55;35.03;;;12.70;99.90;;;;;;5061678;28;20490;-84
2022/10/21 07:19:25;;;;;;;74.60;33.42;;;12.70;99.90;;;;;;5054464;28;20539;-84
2022/10/21 07:21:51;;;;;;;78.88;32.67;;;12.70;99.90;;;;;;5076136;28;20051;-84
2022/10/21 07:24:16;;;;;;;94.97;35.15;;;12.70;99.90;;;;;;5111531;28;20471;-84
2022/10/21 07:26:42;;;;;;;87.28;34.40;;;12.80;99.90;;;;;;5077932;28;20471;-84
2022/10/21 07:29:08;;;;;;;93.07;39.85;;;12.80;99.90;;;;;;5067424;28;20107;-84
2022/10/21 07:31:37;;;;;;;95.90;42.47;;;12.80;99.90;;;;;;5063389;28;20569;-84
2022/10/21 07:34:05;;;;;;;78.25;33.55;;;12.80;99.90;;;;;;5078676;28;20027;-83
2022/10/21 07:36:40;;;;;;;88.30;31.80;;;12.80;99.90;;;;;;5081312;28;20464;-84
2022/10/21 07:39:10;;;;;;;75.18;29.23;;;12.80;99.90;;;;;;5068519;28;20033;-84
2022/10/21 07:41:45;;;;;;;77.13;31.92;;;12.90;99.90;;;;;;5082187;28;20143;-84
2022/10/21 07:44:11;;;;;;;85.47;33.72;;;12.90;99.90;;;;;;5073020;28;20036;-84
2022/10/21 07:46:39;;;;;;;81.45;35.10;;;12.90;99.90;;;;;;5117544;28;20548;-84
2022/10/21 07:49:05;;;;;;;82.10;33.47;;;12.90;99.90;;;;;;5056761;28;20051;-84
2022/10/21 07:51:31;;;;;;;94.95;36.10;;;12.90;99.90;;;;;;5084888;28;20020;-84
2022/10/21 07:53:59;;;;;;;109.20;38.95;;;12.90;99.90;;;;;;5070645;28;20152;-83
2022/10/21 07:56:33;;;;;;;97.95;35.58;;;12.90;99.90;;;;;;5102589;28;20534;-84
2022/10/21 07:59:00;;;;;;;213.57;38.45;;;12.90;99.90;;;;;;5070268;28;144719;-84
2022/10/21 08:01:26;;;;;;;149.48;36.50;;;12.90;99.90;;;;;;5075936;28;20039;-84
2022/10/21 08:04:18;;;;;;;75.30;29.40;;;13.00;99.90;;;;;;5089974;28;20394;-84
2022/10/21 08:06:45;;;;;;;66.88;27.13;;;13.10;99.90;;;;;;5076608;28;20043;-84
2022/10/21 08:09:25;;;;;;;73.15;28.45;;;13.10;99.90;;;;;;5058756;28;20036;-84
2022/10/21 08:11:50;;;;;;;134.95;30.88;;;13.10;99.90;;;;;;5060892;28;20094;-84
2022/10/21 08:14:17;;;;;;;347.25;37.63;;;13.00;99.90;;;;;;5059973;28;20043;-84
2022/10/21 08:16:42;;;;;;;489.95;43.95;;;13.00;99.90;;;;;;5060862;28;20036;-83
2022/10/21 08:19:16;;;;;;;228.63;31.73;;;13.00;99.90;;;;;;5077421;28;20042;-84
2022/10/21 08:21:41;;;;;;;157.50;27.77;;;13.00;99.90;;;;;;5080528;28;20029;-84
2022/10/21 08:24:07;;;;;;;484.13;38.78;;;13.10;99.90;;;;;;5078460;28;20070;-84
2022/10/21 08:26:32;;;;;;;319.45;32.13;;;13.10;99.90;;;;;;5071951;28;20040;-84
2022/10/21 08:28:58;;;;;;;143.88;24.02;;;13.10;99.90;;;;;;5079338;28;20383;-84
2022/10/21 08:31:24;;;;;;;280.15;29.33;;;13.10;99.90;;;;;;5078754;28;20031;-84
2022/10/21 08:33:50;;;;;;;174.35;26.77;;;13.20;99.90;;;;;;5112275;27;20033;-84
2022/10/21 08:36:18;;;;;;;87.15;22.23;;;13.20;99.90;;;;;;5077310;28;20051;-84
2022/10/21 08:38:45;;;;;;;259.17;27.70;;;13.30;99.90;;;;;;5081753;28;20509;-84
2022/10/21 08:41:23;;;;;;;49.90;19.05;;;13.30;99.90;;;;;;5061295;28;20043;-83
2022/10/21 08:44:17;;;;;;;35.03;16.95;;;13.30;99.90;;;;;;5073752;28;20031;-84
2022/10/21 08:46:54;;;;;;;40.67;16.65;;;13.40;99.90;;;;;;5078048;28;20063;-83
2022/10/21 08:49:28;;;;;;;39.72;16.17;;;13.40;99.90;;;;;;5113734;27;20103;-83
2022/10/21 08:52:05;;;;;;;35.67;15.30;;;13.40;99.90;;;;;;5076078;28;20019;-84
2022/10/21 08:54:41;;;;;;;37.72;14.45;;;13.40;99.90;;;;;;5084600;28;20486;-83
2022/10/21 08:57:10;;;;;;;37.13;14.82;;;13.30;99.90;;;;;;5046261;28;20677;-84
2022/10/21 08:59:36;;;;;;;34.10;14.50;;;13.30;99.90;;;;;;5069394;28;20098;-83
2022/10/21 09:02:33;;;;;;;24.20;11.93;;;13.30;99.90;;;;;;5064947;28;20605;-84
2022/10/21 09:05:34;;;;;;;20.23;9.85;;;13.30;99.90;;;;;;5064380;28;20043;-84
2022/10/21 09:08:09;;;;;;;23.88;9.02;;;13.30;99.90;;;;;;5059473;28;20025;-84
2022/10/21 09:10:52;;;;;;;25.13;9.85;;;13.30;99.90;;;;;;5082233;28;20020;-84
2022/10/21 09:13:31;;;;;;;20.38;10.00;;;13.30;99.90;;;;;;5071576;28;20492;-84
2022/10/21 09:16:43;;;;;;;17.52;8.48;;;13.30;99.90;;;;;;5078693;28;20684;-84
2022/10/21 09:19:39;;;;;;;19.67;7.18;;;13.30;99.90;;;;;;5064047;28;20032;-84
2022/10/21 09:22:43;;;;;;;16.45;7.40;;;13.40;99.90;;;;;;5079996;28;20656;-84
2022/10/21 09:25:27;;;;;;;18.45;6.53;;;13.30;99.90;;;;;;5069039;28;20028;-84
2022/10/21 09:27:54;;;;;;;13.90;6.18;;;13.30;99.90;;;;;;5085158;28;20026;-85
2022/10/21 09:30:21;;;;;;;14.93;6.90;;;13.20;99.90;;;;;;5079753;28;20493;-84
2022/10/21 09:32:49;;;;;;;23.05;8.30;;;13.20;99.90;;;;;;5050491;28;20048;-84
2022/10/21 09:35:33;;;;;;;12.90;6.75;;;13.20;99.90;;;;;;5069163;28;20758;-85
2022/10/21 09:38:34;;;;;;;8.75;4.80;;;13.20;99.90;;;;;;5053897;28;20141;-84
2022/10/21 09:41:02;;;;;;;10.97;4.83;;;13.20;99.90;;;;;;5069099;28;20032;-84
2022/10/21 09:43:29;;;;;;;17.50;5.32;;;13.20;99.90;;;;;;5089249;28;20051;-84
2022/10/21 09:45:56;;;;;;;7.13;3.88;;;13.20;99.90;;;;;;5086318;28;20065;-84
2022/10/21 09:48:39;;;;;;;5.57;3.40;;;13.20;99.90;;;;;;5070204;28;20048;-84
2022/10/21 09:51:18;;;;;;;8.13;3.60;;;13.30;99.90;;;;;;5083337;28;20058;-84
2022/10/21 09:53:53;;;;;;;13.00;3.70;;;13.30;99.90;;;;;;5079457;28;20052;-84
2022/10/21 09:56:26;;;;;;;9.48;4.28;;;13.30;99.90;;;;;;5091290;28;20024;-83
2022/10/21 09:59:10;;;;;;;10.82;4.75;;;13.30;99.90;;;;;;5080355;28;20517;-84
2022/10/21 10:01:48;;;;;;;10.20;4.25;;;13.50;99.90;;;;;;5062922;28;20063;-84
2022/10/21 10:04:30;;;;;;;10.85;4.57;;;13.50;99.90;;;;;;5089160;28;20032;-84
2022/10/21 10:07:17;;;;;;;7.03;4.30;;;13.50;99.90;;;;;;5068922;28;20046;-84
2022/10/21 10:09:45;;;;;;;13.02;5.68;;;13.50;99.90;;;;;;5073723;28;20058;-84
2022/10/21 10:12:25;;;;;;;13.20;7.30;;;13.50;99.90;;;;;;5080006;28;20027;-84
2022/10/21 10:14:51;;;;;;;15.10;6.45;;;13.50;99.90;;;;;;5071914;28;20032;-84
2022/10/21 10:17:32;;;;;;;8.13;4.63;;;13.60;99.90;;;;;;5075995;28;20066;-84
2022/10/21 10:20:04;;;;;;;8.70;5.20;;;13.50;99.90;;;;;;5069688;28;20095;-84
2022/10/21 10:23:02;;;;;;;11.20;5.85;;;13.50;99.90;;;;;;5081558;28;20803;-84
2022/10/21 10:25:34;;;;;;;14.02;6.70;;;13.60;99.90;;;;;;5045157;28;20488;-85
2022/10/21 10:28:09;;;;;;;8.13;4.80;;;13.60;99.90;;;;;;5071588;28;20046;-84
2022/10/21 10:30:48;;;;;;;15.82;5.25;;;13.60;99.90;;;;;;5071095;28;20029;-83
2022/10/21 10:33:28;;;;;;;12.20;7.05;;;13.50;99.90;;;;;;5077769;28;20486;-84
2022/10/21 10:35:59;;;;;;;7.88;4.97;;;13.40;99.90;;;;;;5064425;28;20028;-84
2022/10/21 10:38:34;;;;;;;14.50;7.07;;;13.40;99.90;;;;;;5080187;28;20016;-84
2022/10/21 10:41:07;;;;;;;28.67;12.98;;;13.30;99.90;;;;;;5074903;28;20020;-83
2022/10/21 10:43:36;;;;;;;30.00;14.57;;;13.40;99.90;;;;;;5079423;28;20052;-84
2022/10/21 10:46:05;;;;;;;9.57;5.15;;;13.40;99.90;;;;;;5066047;28;20097;-84
2022/10/21 10:48:35;;;;;;;13.20;4.60;;;13.40;99.90;;;;;;5080772;28;20410;-84
2022/10/21 10:51:06;;;;;;;13.10;5.55;;;13.40;99.90;;;;;;5075117;28;20028;-84
2022/10/21 10:53:37;;;;;;;8.18;4.78;;;13.50;99.90;;;;;;5086817;28;20103;-84
2022/10/21 10:56:29;;;;;;;7.70;3.38;;;13.40;99.90;;;;;;5077841;28;20391;-84
2022/10/21 10:59:28;;;;;;;8.50;4.35;;;13.40;99.90;;;;;;5046136;28;20051;-84
2022/10/21 11:02:12;;;;;;;8.38;3.67;;;13.40;99.90;;;;;;5087271;28;20032;-84
2022/10/21 11:04:42;;;;;;;9.60;4.55;;;13.50;99.90;;;;;;5082179;28;20036;-84
2022/10/21 11:07:20;;;;;;;9.18;5.05;;;13.40;99.90;;;;;;5080179;28;20101;-84
2022/10/21 11:09:48;;;;;;;8.70;5.88;;;13.50;99.90;;;;;;5074309;28;20504;-84
2022/10/21 11:12:22;;;;;;;12.18;5.60;;;13.50;99.90;;;;;;5080776;28;20031;-84
2022/10/21 11:14:55;;;;;;;18.35;8.65;;;13.40;99.90;;;;;;5076087;28;20029;-84
2022/10/21 11:17:36;;;;;;;16.80;7.55;;;13.40;99.90;;;;;;5082553;28;20020;-84
2022/10/21 11:20:20;;;;;;;11.73;6.67;;;13.40;99.90;;;;;;5077321;28;20035;-85
2022/10/21 11:23:33;;;;;;;12.95;6.63;;;13.40;99.90;;;;;;5080178;28;20043;-84
2022/10/21 11:26:28;;;;;;;17.30;7.85;;;13.40;99.90;;;;;;5061147;28;20394;-84
2022/10/21 11:29:15;;;;;;;8.32;5.93;;;13.40;99.90;;;;;;5041591;28;20028;-84
2022/10/21 11:31:48;;;;;;;14.95;7.13;;;13.40;99.90;;;;;;5076082;28;20063;-84
2022/10/21 11:34:25;;;;;;;10.98;6.95;;;13.40;99.90;;;;;;5081505;28;20073;-84
2022/10/21 11:37:04;;;;;;;12.43;6.95;;;13.50;99.90;;;;;;5079898;28;21817;-84
2022/10/21 11:40:02;;;;;;;9.85;6.00;;;13.50;99.90;;;;;;5078026;28;20115;-85
2022/10/21 11:42:55;;;;;;;12.43;5.95;;;13.50;99.90;;;;;;5065670;28;20051;-85
2022/10/21 11:45:32;;;;;;;16.92;6.97;;;13.50;99.90;;;;;;5068930;28;20090;-84
2022/10/21 11:48:28;;;;;;;14.18;6.40;;;13.50;99.90;;;;;;5046520;28;20032;-85
2022/10/21 11:51:08;;;;;;;13.05;6.97;;;13.50;99.90;;;;;;5070872;28;20024;-84
2022/10/21 11:53:51;;;;;;;12.13;6.15;;;13.60;99.90;;;;;;5058700;28;20027;-84
2022/10/21 11:56:32;;;;;;;13.20;6.20;;;13.70;99.90;;;;;;5055637;28;20035;-85
2022/10/21 11:59:03;;;;;;;13.63;6.57;;;13.80;99.90;;;;;;5056572;28;20456;-85
2022/10/21 12:01:53;;;;;;;13.70;6.85;;;13.90;99.90;;;;;;5043709;28;20025;-85
2022/10/21 12:04:36;;;;;;;12.35;6.78;;;14.00;99.90;;;;;;5045175;28;20086;-85
2022/10/21 12:07:26;;;;;;;9.68;5.82;;;14.10;99.90;;;;;;5053550;28;20029;-85
2022/10/21 12:10:09;;;;;;;11.00;6.10;;;14.10;99.90;;;;;;5069816;28;20085;-85
2022/10/21 12:12:39;;;;;;;10.40;6.53;;;14.10;99.90;;;;;;5055467;28;20036;-85
2022/10/21 12:15:16;;;;;;;13.60;6.85;;;14.10;99.90;;;;;;5065847;28;20077;-84
2022/10/21 12:17:44;;;;;;;12.32;6.28;;;14.10;99.90;;;;;;5048002;28;20036;-86
2022/10/21 12:20:22;;;;;;;14.18;6.22;;;14.10;99.90;;;;;;5071129;28;20037;-85
2022/10/21 12:22:49;;;;;;;10.63;5.40;;;14.10;99.90;;;;;;5048885;28;20029;-85
2022/10/21 12:25:14;;;;;;;16.65;5.88;;;14.10;99.90;;;;;;5037245;28;20531;-85
2022/10/21 12:28:03;;;;;;;12.32;5.75;;;14.00;99.90;;;;;;5061330;28;20108;-85
2022/10/21 12:30:52;;;;;;;25.05;10.45;;;14.00;99.90;;;;;;5057417;28;20032;-85
2022/10/21 12:33:27;;;;;;;27.45;15.43;;;14.00;99.90;;;;;;5040237;28;20032;-85
2022/10/21 12:36:22;;;;;;;17.48;8.20;;;14.00;99.90;;;;;;5052239;28;20094;-85
2022/10/21 12:38:58;;;;;;;11.35;6.28;;;14.00;99.90;;;;;;5062765;28;20444;-84
2022/10/21 12:41:28;;;;;;;7.78;4.80;;;14.10;99.90;;;;;;5060597;28;20024;-85
2022/10/21 12:43:59;;;;;;;10.90;5.97;;;14.10;99.90;;;;;;5070039;28;20035;-85
2022/10/21 12:46:27;;;;;;;;;;;14.20;99.90;;;;;;5050882;28;20012;-85
2022/10/21 12:52:42;;;;;;;11.07;5.07;;;14.30;99.90;;;;;;5068904;28;20559;-85
2022/10/21 12:55:24;;;;;;;8.32;4.85;;;14.50;99.90;;;;;;5047364;28;20025;-85
2022/10/21 12:58:03;;;;;;;14.93;4.65;;;14.70;99.90;;;;;;5069043;28;20032;-86